Latimer, Iowa
Current Conditions -  °F | °C
As of 10:10 AM on Thursday 30 Oct 2014 (Local Time) from KCAV Reporting Station
Few Clouds Few Clouds  
Wind Chill: 43°   Ceiling: Unl
Heat Index: 46°   Visibility: 10mi
Dew Point: 39°   Wind: 7mph
Humidity: 76%   Direction: 160°SSE
Pressure: 30.04"   Gusts: NA
Location:  42.76°N, 93.37°W
Report Text: KCAV 301510Z AUTO 16006KT 10SM FEW075 FEW100 08/04 A3004 RMK AO2
Loading
Personal Weather Stations






























Interactive Weather Map
Tropical Storm Tracking
New forecast layout! Learn more

10-Day Weather Forecast

Advertisements
Track Severe Weather on mobile